Time;durP1;ratioP1;P1;durP2;ratioP2;P2;SDS_P1;SDS_P2;PMS_P1;PMS_P2;Temp;Humidity;BMP_temperature;BMP_pressure;BME280_temperature;BME280_humidity;BME280_pressure;Samples;Min_cycle;Max_cycle;Signal;HPM_P1;HPM_P2
2022/07/28 00:01:05;;;;;;;1.43;1.20;;;;;;;;;;5067842;28;20242;-74
2022/07/28 00:03:31;;;;;;;2.00;1.13;;;;;;;;;;5071863;28;20192;-74
2022/07/28 00:05:57;;;;;;;2.10;1.30;;;;;;;;;;5061195;28;20221;-74
2022/07/28 00:08:24;;;;;;;2.40;1.30;;;;;;;;;;5074724;28;20192;-74
2022/07/28 00:10:50;;;;;;;1.83;1.10;;;;;;;;;;5060864;28;20247;-74
2022/07/28 00:13:16;;;;;;;3.67;1.10;;;;;;;;;;5064494;28;20241;-74
2022/07/28 00:15:42;;;;;;;1.23;1.00;;;;;;;;;;5067954;28;20213;-74
2022/07/28 00:18:08;;;;;;;2.93;1.07;;;;;;;;;;5066072;28;20180;-74
2022/07/28 00:20:34;;;;;;;2.70;1.10;;;;;;;;;;5072602;28;20618;-74
2022/07/28 00:23:01;;;;;;;2.40;1.27;;;;;;;;;;5060139;28;20205;-74
2022/07/28 00:25:27;;;;;;;2.67;1.13;;;;;;;;;;5060094;28;20308;-74
2022/07/28 00:27:53;;;;;;;2.17;1.17;;;;;;;;;;5064915;28;20217;-74
2022/07/28 00:30:19;;;;;;;1.60;1.10;;;;;;;;;;5062861;28;20180;-74
2022/07/28 00:32:45;;;;;;;1.67;1.10;;;;;;;;;;5071437;28;20205;-74
2022/07/28 00:35:12;;;;;;;2.53;1.10;;;;;;;;;;5066541;28;20177;-74
2022/07/28 00:37:38;;;;;;;2.37;1.10;;;;;;;;;;5069326;28;20213;-74
2022/07/28 00:40:04;;;;;;;2.40;1.20;;;;;;;;;;5064537;28;20181;-74
2022/07/28 00:42:30;;;;;;;2.77;1.10;;;;;;;;;;5073729;28;20260;-74
2022/07/28 00:44:56;;;;;;;3.00;1.07;;;;;;;;;;5076993;28;20176;-74
2022/07/28 00:47:22;;;;;;;2.03;1.33;;;;;;;;;;5080783;28;20212;-74
2022/07/28 00:49:49;;;;;;;5.37;1.20;;;;;;;;;;5064861;28;20261;-74
2022/07/28 00:52:16;;;;;;;3.27;1.27;;;;;;;;;;5069316;28;20185;-74
2022/07/28 00:54:43;;;;;;;2.07;1.10;;;;;;;;;;5078002;28;20703;-73
2022/07/28 00:57:09;;;;;;;3.93;1.10;;;;;;;;;;5071244;28;20208;-74
2022/07/28 00:59:35;;;;;;;1.67;1.10;;;;;;;;;;5064229;28;20178;-74
2022/07/28 01:02:02;;;;;;;2.63;1.00;;;;;;;;;;5064496;28;20242;-74
2022/07/28 01:04:28;;;;;;;2.73;1.00;;;;;;;;;;5076694;28;20308;-74
2022/07/28 01:06:59;;;;;;;1.67;1.03;;;;;;;;;;5059133;28;20252;-74
2022/07/28 01:09:32;;;;;;;2.37;1.10;;;;;;;;;;5061329;28;20181;-74
2022/07/28 01:12:01;;;;;;;1.60;1.10;;;;;;;;;;5075014;28;20284;-74
2022/07/28 01:14:34;;;;;;;2.70;1.00;;;;;;;;;;5069023;28;20239;-74
2022/07/28 01:17:09;;;;;;;2.93;0.97;;;;;;;;;;5074252;28;20199;-74
2022/07/28 01:19:35;;;;;;;2.47;1.00;;;;;;;;;;5073022;28;20234;-74
2022/07/28 01:22:03;;;;;;;2.60;1.20;;;;;;;;;;5068586;28;20200;-74
2022/07/28 01:24:48;;;;;;;1.50;1.00;;;;;;;;;;5066152;28;20205;-74
2022/07/28 01:27:23;;;;;;;1.40;0.90;;;;;;;;;;5070327;28;20196;-74
2022/07/28 01:29:57;;;;;;;1.90;1.07;;;;;;;;;;5061168;28;20312;-74
2022/07/28 01:32:24;;;;;;;1.73;1.13;;;;;;;;;;5070979;28;20310;-74
2022/07/28 01:34:57;;;;;;;6.33;1.40;;;;;;;;;;5064049;28;20193;-74
2022/07/28 01:37:28;;;;;;;4.77;1.00;;;;;;;;;;5074618;28;20200;-74
2022/07/28 01:39:57;;;;;;;1.20;0.83;;;;;;;;;;5066930;28;20181;-74
2022/07/28 01:42:26;;;;;;;1.40;1.03;;;;;;;;;;5062735;28;20190;-74
2022/07/28 01:44:52;;;;;;;1.23;1.00;;;;;;;;;;5069923;28;20177;-74
2022/07/28 01:47:19;;;;;;;2.00;1.00;;;;;;;;;;5073735;28;20208;-74
2022/07/28 01:49:46;;;;;;;1.77;1.03;;;;;;;;;;5087419;28;20179;-74
2022/07/28 01:52:13;;;;;;;2.13;1.10;;;;;;;;;;5083039;28;20522;-74
2022/07/28 01:54:42;;;;;;;2.17;1.00;;;;;;;;;;5072778;28;20279;-74
2022/07/28 01:57:09;;;;;;;1.67;0.97;;;;;;;;;;5058426;28;20209;-74
2022/07/28 01:59:37;;;;;;;2.27;1.10;;;;;;;;;;5076657;28;20183;-74
2022/07/28 02:02:04;;;;;;;1.20;0.90;;;;;;;;;;5064404;28;20209;-74
2022/07/28 02:04:32;;;;;;;3.43;1.20;;;;;;;;;;5075220;28;20232;-74
2022/07/28 02:06:59;;;;;;;1.50;1.00;;;;;;;;;;5089143;28;20242;-74
2022/07/28 02:09:25;;;;;;;1.10;1.00;;;;;;;;;;5078541;28;20750;-73
2022/07/28 02:11:53;;;;;;;1.70;1.07;;;;;;;;;;5079911;28;20242;-74
2022/07/28 02:14:22;;;;;;;1.80;1.00;;;;;;;;;;5071202;28;20300;-73
2022/07/28 02:16:51;;;;;;;1.63;1.00;;;;;;;;;;5080203;28;20208;-74
2022/07/28 02:19:17;;;;;;;1.80;1.10;;;;;;;;;;5073709;28;20174;-74
2022/07/28 02:21:46;;;;;;;2.10;1.00;;;;;;;;;;5075945;28;20239;-74
2022/07/28 02:24:13;;;;;;;1.60;1.00;;;;;;;;;;5090694;28;20204;-74
2022/07/28 02:26:41;;;;;;;2.87;1.10;;;;;;;;;;5078736;28;20185;-74
2022/07/28 02:29:11;;;;;;;1.30;1.00;;;;;;;;;;5065092;28;20209;-74
2022/07/28 02:31:42;;;;;;;2.17;1.10;;;;;;;;;;5057167;28;20239;-74
2022/07/28 02:34:10;;;;;;;1.30;1.10;;;;;;;;;;5065966;28;20570;-74
2022/07/28 02:36:37;;;;;;;1.33;0.90;;;;;;;;;;5068957;28;20258;-74
2022/07/28 02:39:07;;;;;;;3.37;1.10;;;;;;;;;;5065850;28;20177;-74
2022/07/28 02:41:57;;;;;;;1.70;1.10;;;;;;;;;;5059866;28;20189;-73
2022/07/28 02:44:27;;;;;;;2.73;1.10;;;;;;;;;;5063921;28;20208;-74
2022/07/28 02:46:54;;;;;;;1.50;1.00;;;;;;;;;;5065723;28;20666;-74
2022/07/28 02:49:22;;;;;;;2.13;1.17;;;;;;;;;;5056495;28;20194;-74
2022/07/28 02:51:50;;;;;;;2.17;1.03;;;;;;;;;;5070891;28;20209;-73
2022/07/28 02:54:20;;;;;;;1.70;1.03;;;;;;;;;;5051683;28;20790;-74
2022/07/28 02:56:49;;;;;;;2.03;1.10;;;;;;;;;;5065760;28;20224;-74
2022/07/28 02:59:17;;;;;;;1.30;0.90;;;;;;;;;;5070940;28;20183;-74
2022/07/28 03:01:43;;;;;;;1.53;1.00;;;;;;;;;;5069947;28;20338;-74
2022/07/28 03:04:10;;;;;;;2.27;1.10;;;;;;;;;;5071285;28;20228;-74
2022/07/28 03:06:36;;;;;;;2.60;1.30;;;;;;;;;;5069141;28;20177;-74
2022/07/28 03:09:02;;;;;;;1.73;1.20;;;;;;;;;;5061945;28;20204;-74
2022/07/28 03:11:28;;;;;;;3.33;1.23;;;;;;;;;;5070522;28;20208;-74
2022/07/28 03:13:55;;;;;;;3.53;1.20;;;;;;;;;;5071155;28;20197;-74
2022/07/28 03:16:21;;;;;;;2.00;1.20;;;;;;;;;;5071276;28;20765;-73
2022/07/28 03:18:47;;;;;;;2.17;1.20;;;;;;;;;;5060036;28;20177;-74
2022/07/28 03:21:14;;;;;;;2.47;1.30;;;;;;;;;;5081547;28;20180;-74
2022/07/28 03:23:42;;;;;;;6.57;1.30;;;;;;;;;;5061972;28;20216;-74
2022/07/28 03:26:17;;;;;;;4.73;1.23;;;;;;;;;;5066882;28;20268;-74
2022/07/28 03:28:44;;;;;;;4.40;1.50;;;;;;;;;;5064652;28;20236;-74
2022/07/28 03:31:11;;;;;;;1.53;1.20;;;;;;;;;;5050153;28;20548;-74
2022/07/28 03:33:38;;;;;;;3.67;1.37;;;;;;;;;;5051253;28;20586;-74
2022/07/28 03:36:10;;;;;;;2.57;1.53;;;;;;;;;;5050901;28;20202;-73
2022/07/28 03:38:40;;;;;;;5.47;1.60;;;;;;;;;;5051849;28;20174;-74
2022/07/28 03:41:09;;;;;;;2.50;1.13;;;;;;;;;;5058041;28;20273;-74
2022/07/28 03:43:35;;;;;;;3.83;1.30;;;;;;;;;;5077982;28;20199;-73
2022/07/28 03:46:01;;;;;;;2.03;1.10;;;;;;;;;;5090273;28;20188;-74
2022/07/28 03:48:28;;;;;;;3.47;1.30;;;;;;;;;;5079128;28;20230;-73
2022/07/28 03:50:54;;;;;;;2.27;1.10;;;;;;;;;;5072403;28;20189;-73
2022/07/28 03:53:22;;;;;;;1.83;1.20;;;;;;;;;;5060686;28;20212;-73
2022/07/28 03:55:49;;;;;;;1.67;1.10;;;;;;;;;;5064060;28;20190;-74
2022/07/28 03:58:17;;;;;;;2.40;1.10;;;;;;;;;;5068263;28;20177;-74
2022/07/28 04:00:43;;;;;;;1.50;1.00;;;;;;;;;;5065580;28;20246;-74
2022/07/28 04:03:09;;;;;;;1.27;1.10;;;;;;;;;;5061991;28;20193;-74
2022/07/28 04:05:35;;;;;;;1.47;1.00;;;;;;;;;;5070097;28;20181;-74
2022/07/28 04:08:01;;;;;;;2.90;1.20;;;;;;;;;;5065915;28;20594;-74
2022/07/28 04:10:27;;;;;;;2.37;1.10;;;;;;;;;;5065823;28;20268;-73
2022/07/28 04:12:55;;;;;;;1.90;1.30;;;;;;;;;;5066968;28;20208;-73
2022/07/28 04:15:21;;;;;;;4.87;1.40;;;;;;;;;;5066824;28;20173;-73
2022/07/28 04:17:48;;;;;;;2.23;1.33;;;;;;;;;;5067694;28;20212;-73
2022/07/28 04:20:15;;;;;;;2.63;1.40;;;;;;;;;;5068253;28;20252;-74
2022/07/28 04:22:41;;;;;;;3.07;1.13;;;;;;;;;;5065839;28;20180;-73
2022/07/28 04:25:08;;;;;;;2.87;1.30;;;;;;;;;;5065131;28;20243;-74
2022/07/28 04:27:35;;;;;;;2.50;1.30;;;;;;;;;;5062496;28;20621;-74
2022/07/28 04:30:03;;;;;;;1.90;1.27;;;;;;;;;;5065843;28;20193;-74
2022/07/28 04:32:29;;;;;;;2.20;1.30;;;;;;;;;;5071935;28;20268;-74
2022/07/28 04:34:55;;;;;;;1.73;1.20;;;;;;;;;;5058783;28;20220;-73
2022/07/28 04:37:21;;;;;;;2.10;1.27;;;;;;;;;;5077169;28;20223;-74
2022/07/28 04:39:49;;;;;;;1.93;1.30;;;;;;;;;;5059876;28;20183;-74
2022/07/28 04:42:17;;;;;;;1.67;1.40;;;;;;;;;;5064310;28;20209;-74
2022/07/28 04:44:44;;;;;;;1.60;1.40;;;;;;;;;;5070731;28;20197;-74
2022/07/28 04:47:14;;;;;;;1.50;1.20;;;;;;;;;;5070542;28;20189;-74
2022/07/28 04:49:40;;;;;;;3.70;1.40;;;;;;;;;;5057847;28;20923;-74
2022/07/28 04:52:09;;;;;;;2.50;1.93;;;;;;;;;;5067379;28;20204;-73
2022/07/28 04:54:36;;;;;;;4.60;1.70;;;;;;;;;;5067942;28;20236;-74
2022/07/28 04:57:03;;;;;;;3.93;1.47;;;;;;;;;;5064346;28;20926;-74
2022/07/28 04:59:29;;;;;;;3.53;1.40;;;;;;;;;;5069696;28;20181;-73
2022/07/28 05:01:56;;;;;;;3.40;1.53;;;;;;;;;;5065184;28;20188;-74
2022/07/28 05:04:22;;;;;;;1.47;1.20;;;;;;;;;;5061419;28;20201;-74
2022/07/28 05:06:48;;;;;;;1.97;1.17;;;;;;;;;;5065021;28;20208;-74
2022/07/28 05:09:15;;;;;;;2.77;1.40;;;;;;;;;;5077094;28;20173;-74
2022/07/28 05:11:41;;;;;;;3.77;1.60;;;;;;;;;;5070604;28;20596;-74
2022/07/28 05:14:08;;;;;;;2.37;1.40;;;;;;;;;;5089900;28;20292;-74
2022/07/28 05:16:34;;;;;;;2.40;1.40;;;;;;;;;;5088888;28;20181;-74
2022/07/28 05:19:01;;;;;;;3.47;1.30;;;;;;;;;;5091543;28;20200;-74
2022/07/28 05:21:27;;;;;;;2.53;1.30;;;;;;;;;;5066964;28;20190;-73
2022/07/28 05:23:53;;;;;;;1.90;1.20;;;;;;;;;;5078938;28;20305;-73
2022/07/28 05:26:19;;;;;;;4.13;1.30;;;;;;;;;;5083211;28;20209;-73
2022/07/28 05:28:45;;;;;;;4.70;1.40;;;;;;;;;;5085316;28;20215;-73
2022/07/28 05:31:12;;;;;;;2.37;1.40;;;;;;;;;;5076870;28;20183;-73
2022/07/28 05:33:38;;;;;;;6.07;1.67;;;;;;;;;;5091829;28;20211;-73
2022/07/28 05:36:04;;;;;;;1.93;1.17;;;;;;;;;;5088823;28;20555;-73
2022/07/28 05:38:31;;;;;;;2.80;1.30;;;;;;;;;;5086960;28;20196;-73
2022/07/28 05:40:58;;;;;;;2.40;1.20;;;;;;;;;;5085415;28;20729;-73
2022/07/28 05:43:24;;;;;;;2.33;1.30;;;;;;;;;;5089689;28;20995;-73
2022/07/28 05:45:50;;;;;;;4.40;1.50;;;;;;;;;;5080367;28;20337;-73
2022/07/28 05:48:20;;;;;;;2.80;1.50;;;;;;;;;;5092609;28;20634;-73
2022/07/28 05:50:47;;;;;;;4.97;1.50;;;;;;;;;;5080762;28;20180;-73
2022/07/28 05:53:13;;;;;;;1.90;1.30;;;;;;;;;;5093396;28;20572;-73
2022/07/28 05:55:39;;;;;;;3.20;1.40;;;;;;;;;;5073220;28;20245;-73
2022/07/28 05:58:05;;;;;;;2.33;1.47;;;;;;;;;;5090055;28;20185;-73
2022/07/28 06:00:32;;;;;;;2.80;1.30;;;;;;;;;;5077201;28;20220;-73
2022/07/28 06:03:02;;;;;;;5.67;1.60;;;;;;;;;;5093282;28;20207;-73
2022/07/28 06:05:29;;;;;;;4.67;1.30;;;;;;;;;;5085333;28;20178;-73
2022/07/28 06:07:55;;;;;;;2.60;1.40;;;;;;;;;;5059933;28;20697;-73
2022/07/28 06:10:22;;;;;;;6.20;1.30;;;;;;;;;;5063518;28;20189;-73
2022/07/28 06:12:49;;;;;;;4.33;1.30;;;;;;;;;;5069471;28;20592;-73
2022/07/28 06:15:17;;;;;;;4.17;1.50;;;;;;;;;;5066070;28;20178;-73
2022/07/28 06:17:44;;;;;;;3.10;1.50;;;;;;;;;;5069422;28;20666;-73
2022/07/28 06:20:10;;;;;;;2.90;1.63;;;;;;;;;;5069282;28;20527;-73
2022/07/28 06:22:40;;;;;;;4.27;1.60;;;;;;;;;;5071872;28;20199;-74
2022/07/28 06:25:07;;;;;;;1.80;1.30;;;;;;;;;;5087188;28;20195;-73
2022/07/28 06:27:33;;;;;;;4.87;1.60;;;;;;;;;;5091563;28;20247;-73
2022/07/28 06:29:59;;;;;;;4.23;1.67;;;;;;;;;;5075983;28;20188;-73
2022/07/28 06:32:25;;;;;;;2.40;1.60;;;;;;;;;;5086720;28;20181;-73
2022/07/28 06:34:51;;;;;;;1.93;1.43;;;;;;;;;;5083543;28;20181;-73
2022/07/28 06:37:17;;;;;;;2.10;1.53;;;;;;;;;;5085263;28;20180;-73
2022/07/28 06:39:43;;;;;;;3.80;1.70;;;;;;;;;;5083182;28;20250;-73
2022/07/28 06:42:10;;;;;;;2.83;1.60;;;;;;;;;;5082096;28;20708;-73
2022/07/28 06:44:36;;;;;;;2.57;1.47;;;;;;;;;;5091993;28;20200;-73
2022/07/28 06:47:02;;;;;;;1.93;1.47;;;;;;;;;;5065289;28;20343;-73
2022/07/28 06:49:28;;;;;;;2.07;1.50;;;;;;;;;;5088810;28;20184;-73
2022/07/28 06:51:54;;;;;;;4.07;2.07;;;;;;;;;;5084462;28;20173;-74
2022/07/28 06:54:20;;;;;;;2.07;1.60;;;;;;;;;;5086603;28;20610;-73
2022/07/28 06:56:46;;;;;;;2.50;1.60;;;;;;;;;;5079366;28;20224;-73
2022/07/28 06:59:14;;;;;;;3.00;1.37;;;;;;;;;;5091466;28;20173;-74
2022/07/28 07:01:40;;;;;;;4.00;1.60;;;;;;;;;;5084436;28;20185;-73
2022/07/28 07:04:09;;;;;;;2.33;1.50;;;;;;;;;;5076330;28;20212;-73
2022/07/28 07:06:35;;;;;;;5.30;2.20;;;;;;;;;;5069166;28;20684;-73
2022/07/28 07:09:01;;;;;;;1.93;1.60;;;;;;;;;;5070022;28;20185;-73
2022/07/28 07:11:27;;;;;;;5.30;1.60;;;;;;;;;;5082364;28;20200;-73
2022/07/28 07:13:54;;;;;;;3.30;1.60;;;;;;;;;;5076850;28;20677;-73
2022/07/28 07:16:20;;;;;;;4.77;1.90;;;;;;;;;;5089517;28;20661;-73
2022/07/28 07:18:49;;;;;;;3.17;1.77;;;;;;;;;;5075385;28;20183;-75
2022/07/28 07:21:15;;;;;;;2.83;2.00;;;;;;;;;;5070688;28;20185;-73
2022/07/28 07:23:41;;;;;;;2.30;1.60;;;;;;;;;;5085442;28;20197;-74
2022/07/28 07:26:08;;;;;;;3.07;1.80;;;;;;;;;;5082957;28;20208;-73
2022/07/28 07:28:34;;;;;;;2.47;1.80;;;;;;;;;;5081726;28;20673;-73
2022/07/28 07:31:00;;;;;;;3.00;1.63;;;;;;;;;;5077412;28;20188;-73
2022/07/28 07:33:26;;;;;;;2.70;1.77;;;;;;;;;;5091497;28;20228;-73
2022/07/28 07:35:52;;;;;;;3.80;1.80;;;;;;;;;;5082810;28;20191;-74
2022/07/28 07:38:18;;;;;;;3.13;1.70;;;;;;;;;;5082925;28;20558;-73
2022/07/28 07:40:44;;;;;;;2.13;1.67;;;;;;;;;;5077865;28;20176;-73
2022/07/28 07:43:11;;;;;;;2.03;1.83;;;;;;;;;;5091399;28;20199;-74
2022/07/28 07:45:37;;;;;;;3.93;1.93;;;;;;;;;;5082654;28;20177;-73
2022/07/28 07:48:03;;;;;;;3.47;1.77;;;;;;;;;;5091143;28;20283;-74
2022/07/28 07:50:29;;;;;;;3.40;1.83;;;;;;;;;;5075743;28;20174;-73
2022/07/28 07:52:55;;;;;;;3.40;1.87;;;;;;;;;;5071161;28;20666;-73
2022/07/28 07:55:22;;;;;;;4.73;2.13;;;;;;;;;;5070691;28;20172;-74
2022/07/28 07:57:48;;;;;;;2.80;1.87;;;;;;;;;;5077307;28;20185;-73
2022/07/28 08:00:14;;;;;;;5.00;2.20;;;;;;;;;;5074018;28;20177;-73
2022/07/28 08:02:41;;;;;;;3.53;1.90;;;;;;;;;;5057306;28;20729;-74
2022/07/28 08:05:07;;;;;;;4.83;2.10;;;;;;;;;;5067980;28;20232;-73
2022/07/28 08:07:34;;;;;;;3.90;1.57;;;;;;;;;;5061078;28;20212;-75
2022/07/28 08:10:00;;;;;;;3.27;2.30;;;;;;;;;;5071835;28;20174;-74
2022/07/28 08:12:26;;;;;;;3.87;2.30;;;;;;;;;;5067287;28;20675;-72
2022/07/28 08:14:53;;;;;;;3.60;1.80;;;;;;;;;;5075370;28;20180;-74
2022/07/28 08:17:20;;;;;;;2.83;1.97;;;;;;;;;;5063832;28;20238;-73
2022/07/28 08:19:46;;;;;;;2.93;2.00;;;;;;;;;;5070962;28;20199;-73
2022/07/28 08:22:12;;;;;;;4.27;2.10;;;;;;;;;;5082031;28;20193;-73
2022/07/28 08:24:39;;;;;;;2.33;1.70;;;;;;;;;;5072523;28;20236;-72
2022/07/28 08:27:05;;;;;;;3.10;2.30;;;;;;;;;;5068234;28;20219;-73
2022/07/28 08:29:32;;;;;;;2.77;2.40;;;;;;;;;;5061158;28;20540;-73
2022/07/28 08:32:00;;;;;;;4.37;2.03;;;;;;;;;;5065448;28;20200;-72
2022/07/28 08:34:26;;;;;;;3.27;2.20;;;;;;;;;;5064268;28;20217;-73
2022/07/28 08:36:53;;;;;;;3.30;2.33;;;;;;;;;;5061306;28;20182;-72
2022/07/28 08:39:19;;;;;;;3.10;2.20;;;;;;;;;;5065700;28;20186;-72
2022/07/28 08:41:59;;;;;;;2.70;2.40;;;;;;;;;;5072961;28;20180;-72
2022/07/28 08:44:30;;;;;;;3.23;2.73;;;;;;;;;;5076191;28;20207;-72
2022/07/28 08:46:56;;;;;;;2.97;2.70;;;;;;;;;;5072554;28;20215;-72
2022/07/28 08:49:23;;;;;;;3.10;2.70;;;;;;;;;;5062379;28;20238;-72
2022/07/28 08:51:49;;;;;;;3.23;2.90;;;;;;;;;;5053342;28;20185;-72
2022/07/28 08:54:16;;;;;;;5.00;3.00;;;;;;;;;;5061937;28;20197;-73
2022/07/28 08:56:43;;;;;;;4.63;3.30;;;;;;;;;;5071098;28;20601;-73
2022/07/28 08:59:09;;;;;;;4.93;3.23;;;;;;;;;;5062714;28;20185;-72
2022/07/28 09:01:37;;;;;;;5.80;3.00;;;;;;;;;;5064315;28;20193;-72
2022/07/28 09:04:03;;;;;;;5.70;2.60;;;;;;;;;;5062963;28;20211;-72
2022/07/28 09:06:30;;;;;;;3.10;2.60;;;;;;;;;;5062238;28;20213;-72
2022/07/28 09:08:56;;;;;;;4.30;2.30;;;;;;;;;;5072458;28;20176;-72
2022/07/28 09:11:22;;;;;;;4.00;2.70;;;;;;;;;;5069259;28;20313;-72
2022/07/28 09:13:49;;;;;;;4.40;2.57;;;;;;;;;;5068844;28;20585;-72
2022/07/28 09:16:15;;;;;;;6.03;2.40;;;;;;;;;;5069358;28;20262;-72
2022/07/28 09:18:41;;;;;;;5.00;2.70;;;;;;;;;;5075608;28;20177;-72
2022/07/28 09:21:07;;;;;;;5.67;2.47;;;;;;;;;;5070071;28;20814;-72
2022/07/28 09:23:44;;;;;;;3.40;2.70;;;;;;;;;;5057112;28;20210;-72
2022/07/28 09:26:10;;;;;;;2.87;2.40;;;;;;;;;;5057453;28;20201;-72
2022/07/28 09:28:49;;;;;;;4.63;2.60;;;;;;;;;;5061412;28;20192;-72
2022/07/28 09:31:16;;;;;;;2.90;2.40;;;;;;;;;;5074710;28;20219;-72
2022/07/28 09:33:52;;;;;;;4.13;2.30;;;;;;;;;;5071887;28;20205;-72
2022/07/28 09:36:18;;;;;;;4.93;2.40;;;;;;;;;;5071745;28;20659;-72
2022/07/28 09:38:44;;;;;;;2.97;2.30;;;;;;;;;;5065319;28;20599;-72
2022/07/28 09:41:11;;;;;;;3.07;2.40;;;;;;;;;;5069214;28;20185;-72
2022/07/28 09:43:38;;;;;;;3.13;2.27;;;;;;;;;;5065263;28;20211;-72
2022/07/28 09:46:05;;;;;;;3.73;2.23;;;;;;;;;;5058675;28;20316;-72
2022/07/28 09:48:31;;;;;;;3.73;2.43;;;;;;;;;;5066017;28;20177;-72
2022/07/28 09:51:10;;;;;;;3.13;2.50;;;;;;;;;;5067186;28;20779;-73
2022/07/28 09:53:36;;;;;;;8.00;2.40;;;;;;;;;;5071505;28;20197;-73
2022/07/28 09:56:02;;;;;;;4.20;2.30;;;23.60;42.90;;;;;;5068642;28;20181;-73
2022/07/28 09:58:28;;;;;;;2.93;2.40;;;26.60;44.20;;;;;;5069939;28;20215;-73
2022/07/28 10:01:11;;;;;;;2.53;2.23;;;26.70;43.90;;;;;;5059069;28;20185;-73
2022/07/28 10:03:42;;;;;;;3.00;2.07;;;26.70;43.90;;;;;;5069177;28;20209;-73
2022/07/28 10:06:14;;;;;;;2.93;2.30;;;26.70;43.80;;;;;;5064291;28;20245;-73
2022/07/28 10:08:48;;;;;;;2.37;2.17;;;26.80;44.20;;;;;;5065204;28;20184;-73
2022/07/28 10:11:16;;;;;;;3.50;2.10;;;27.00;43.70;;;;;;5065461;28;20275;-73
2022/07/28 10:14:05;;;;;;;6.43;2.47;;;27.10;43.40;;;;;;5061364;28;20228;-73
2022/07/28 10:16:33;;;;;;;3.50;2.50;;;27.30;43.10;;;;;;5064221;28;20589;-73
2022/07/28 10:19:01;;;;;;;2.57;2.10;;;27.50;42.60;;;;;;5063504;28;20188;-74
2022/07/28 10:21:30;;;;;;;3.83;2.30;;;27.60;42.50;;;;;;5056910;28;20614;-73
2022/07/28 10:24:00;;;;;;;2.70;2.40;;;27.80;42.40;;;;;;5060341;28;20209;-73
2022/07/28 10:26:47;;;;;;;2.87;2.20;;;27.90;41.90;;;;;;5070183;28;20692;-73
2022/07/28 10:29:16;;;;;;;2.30;2.10;;;28.10;41.90;;;;;;5061410;28;20191;-74
2022/07/28 10:31:54;;;;;;;3.20;2.37;;;28.20;41.90;;;;;;5058678;28;20178;-74
2022/07/28 10:34:30;;;;;;;3.20;2.00;;;28.40;41.10;;;;;;5069793;28;20228;-73
2022/07/28 10:36:59;;;;;;;3.20;2.30;;;28.50;41.30;;;;;;5060240;28;20615;-74
2022/07/28 10:39:31;;;;;;;3.53;2.50;;;28.60;41.30;;;;;;5062091;28;22110;-73
2022/07/28 10:41:57;;;;;;;3.17;2.20;;;28.60;41.30;;;;;;5073887;28;20267;-74
2022/07/28 10:44:24;;;;;;;4.13;2.20;;;28.70;40.60;;;;;;5061151;28;20276;-74
2022/07/28 10:46:51;;;;;;;3.47;2.50;;;28.70;40.40;;;;;;5069066;28;20209;-74
2022/07/28 10:49:17;;;;;;;3.73;2.43;;;28.70;40.30;;;;;;5070765;28;20252;-74
2022/07/28 10:51:45;;;;;;;3.63;2.10;;;28.70;40.70;;;;;;5063003;28;20192;-73
2022/07/28 10:54:21;;;;;;;6.20;2.20;;;28.80;41.00;;;;;;5062483;28;20587;-74
2022/07/28 10:57:02;;;;;;;4.03;2.20;;;29.10;40.90;;;;;;5062100;28;20310;-74
2022/07/28 10:59:40;;;;;;;2.90;2.10;;;29.40;40.20;;;;;;5062358;28;20272;-74
2022/07/28 11:02:07;;;;;;;2.20;2.00;;;29.50;39.80;;;;;;5052030;28;20841;-74
2022/07/28 11:04:47;;;;;;;3.63;2.10;;;29.80;40.10;;;;;;5064943;28;20777;-74
2022/07/28 11:07:17;;;;;;;2.67;2.30;;;30.10;39.80;;;;;;5052546;28;20212;-74
2022/07/28 11:09:46;;;;;;;2.37;2.07;;;30.40;39.40;;;;;;5058469;28;20195;-75
2022/07/28 11:12:14;;;;;;;3.80;2.20;;;30.40;39.40;;;;;;5062117;28;20597;-77
2022/07/28 11:14:41;;;;;;;4.37;2.50;;;30.40;39.00;;;;;;5059642;28;20690;-75
2022/07/28 11:17:06;;;;;;;3.60;2.30;;;30.40;39.30;;;;;;5062558;28;20743;-75
2022/07/28 11:19:44;;;;;;;2.90;2.20;;;30.30;39.00;;;;;;5054964;28;20197;-78
2022/07/28 11:24:57;;;;;;;6.03;2.40;;;30.10;38.70;;;;;;5066590;28;20266;-77
2022/07/28 11:27:49;;;;;;;3.23;2.60;;;30.00;39.50;;;;;;5065618;28;21310;-79
2022/07/28 11:30:17;;;;;;;3.10;2.43;;;30.00;39.50;;;;;;5067357;28;20181;-78
2022/07/28 11:32:49;;;;;;;4.97;2.50;;;30.00;39.50;;;;;;5065074;28;20274;-79
2022/07/28 11:35:17;;;;;;;4.20;2.57;;;30.00;39.80;;;;;;5073498;28;21566;-79
2022/07/28 11:38:01;;;;;;;2.47;2.27;;;30.10;39.60;;;;;;5072618;28;20189;-78
2022/07/28 11:40:41;;;;;;;2.47;2.20;;;30.00;39.30;;;;;;5069266;28;20186;-79
2022/07/28 11:43:22;;;;;;;4.70;2.57;;;30.10;39.30;;;;;;5069024;28;20210;-78
2022/07/28 11:45:48;;;;;;;4.53;2.40;;;30.30;39.20;;;;;;5065936;28;20272;-78
2022/07/28 11:48:24;;;;;;;4.20;2.30;;;30.50;39.20;;;;;;5074934;28;20552;-78
2022/07/28 11:51:02;;;;;;;3.23;2.20;;;31.00;38.90;;;;;;5066124;28;20199;-79
2022/07/28 11:53:42;;;;;;;3.30;2.10;;;31.50;38.00;;;;;;5070176;28;20208;-79
2022/07/28 11:56:15;;;;;;;2.60;1.93;;;31.70;37.30;;;;;;5072985;28;20576;-79
2022/07/28 11:58:42;;;;;;;2.10;1.90;;;32.00;37.20;;;;;;5070619;28;20591;-79
2022/07/28 12:01:13;;;;;;;4.10;2.20;;;32.00;36.90;;;;;;5059401;28;20181;-77
2022/07/28 12:03:41;;;;;;;3.00;2.10;;;32.00;36.80;;;;;;5063633;28;20622;-78
2022/07/28 12:06:07;;;;;;;2.63;2.10;;;32.00;36.80;;;;;;5058058;28;20694;-75
2022/07/28 12:08:53;;;;;;;2.83;1.90;;;;;;;;;;5059125;28;20189;-75
2022/07/28 12:11:20;;;;;;;4.07;2.17;;;;;;;;;;5054553;28;20206;-75
2022/07/28 12:13:46;;;;;;;4.00;1.70;;;;;;;;;;5059521;28;20202;-75
2022/07/28 12:16:13;;;;;;;2.67;2.00;;;;;;;;;;5064429;28;20186;-75
2022/07/28 12:18:39;;;;;;;3.53;2.03;;;;;;;;;;5066906;28;20259;-75
2022/07/28 12:21:05;;;;;;;3.73;2.13;;;;;;;;;;5064360;28;20220;-75
2022/07/28 12:23:33;;;;;;;4.93;1.80;;;;;;;;;;5076604;28;20761;-75
2022/07/28 12:26:05;;;;;;;3.10;2.00;;;;;;;;;;5055782;28;20195;-75
2022/07/28 12:28:31;;;;;;;3.97;1.87;;;;;;;;;;5054988;28;20173;-75
2022/07/28 12:31:14;;;;;;;4.90;2.03;;;;;;;;;;5056428;28;20610;-75
2022/07/28 12:33:40;;;;;;;3.00;1.90;;;;;;;;;;5056533;28;20574;-75
2022/07/28 12:36:07;;;;;;;3.27;2.10;;;;;;;;;;5054328;28;20179;-75
2022/07/28 12:38:33;;;;;;;3.87;2.00;;;31.90;36.90;;;;;;5063862;28;20191;-75
2022/07/28 12:40:59;;;;;;;2.93;2.20;;;34.30;35.20;;;;;;5060506;28;20184;-75
2022/07/28 12:43:30;;;;;;;3.13;2.00;;;34.50;34.20;;;;;;5056219;28;20227;-75
2022/07/28 12:45:57;;;;;;;2.20;1.90;;;34.00;34.60;;;;;;5052255;28;20185;-75
2022/07/28 12:48:23;;;;;;;4.37;2.07;;;34.10;34.60;;;;;;5058033;28;20180;-75
2022/07/28 12:50:49;;;;;;;3.23;1.90;;;34.50;34.50;;;;;;5045569;28;20189;-75
2022/07/28 12:53:20;;;;;;;2.60;1.97;;;35.10;34.00;;;;;;5064653;28;20682;-75
2022/07/28 12:55:45;;;;;;;2.47;1.80;;;35.60;33.40;;;;;;5063902;28;20186;-75
2022/07/28 12:58:26;;;;;;;2.40;2.20;;;36.30;33.40;;;;;;5061012;28;20183;-75
2022/07/28 13:00:52;;;;;;;4.73;2.00;;;36.10;32.40;;;;;;5060879;28;20673;-75
2022/07/28 13:03:26;;;;;;;2.50;2.10;;;36.00;33.10;;;;;;5073458;28;20208;-76
2022/07/28 13:06:02;;;;;;;6.57;2.10;;;36.10;32.50;;;;;;5067382;28;20290;-75
2022/07/28 13:08:45;;;;;;;11.10;2.10;;;36.20;32.70;;;;;;5072240;28;20908;-75
2022/07/28 13:11:13;;;;;;;2.30;1.73;;;;;;;;;;5069350;28;20700;-75
2022/07/28 13:13:45;;;;;;;3.33;1.80;;;;;;;;;;5071027;28;20292;-75
2022/07/28 13:16:22;;;;;;;2.63;1.90;;;;;;;;;;5068160;28;20243;-75
2022/07/28 13:19:08;;;;;;;3.00;2.10;;;;;;;;;;5066846;28;20196;-75
2022/07/28 13:21:37;;;;;;;2.63;1.87;;;;;;;;;;5072441;28;20189;-75
2022/07/28 13:24:04;;;;;;;4.10;2.30;;;;;;;;;;5062703;28;20228;-75
2022/07/28 13:26:33;;;;;;;4.80;2.20;;;;;;;;;;5073276;28;20236;-75
2022/07/28 13:29:00;;;;;;;6.97;2.33;;;;;;;;;;5068356;28;20185;-75
2022/07/28 13:31:26;;;;;;;5.33;2.07;;;;;;;;;;5077706;28;20600;-75
2022/07/28 13:33:52;;;;;;;3.07;2.10;;;;;;;;;;5063329;28;20227;-75
2022/07/28 13:36:19;;;;;;;3.40;2.30;;;;;;;;;;5059547;28;20183;-75
2022/07/28 13:38:46;;;;;;;4.13;1.90;;;;;;;;;;5056160;28;20187;-75
2022/07/28 13:41:12;;;;;;;4.63;2.30;;;;;;;;;;5059671;28;20283;-75
2022/07/28 13:43:38;;;;;;;3.33;2.10;;;;;;;;;;5065323;28;20217;-75
2022/07/28 13:46:04;;;;;;;3.27;2.03;;;;;;;;;;5070638;28;20269;-75
2022/07/28 13:48:34;;;;;;;4.03;2.13;;;;;;;;;;5055591;28;20571;-75
2022/07/28 13:51:01;;;;;;;2.57;2.00;;;;;;;;;;5055690;28;20201;-75
2022/07/28 13:53:33;;;;;;;6.93;2.20;;;;;;;;;;5065054;28;20202;-75
2022/07/28 13:55:59;;;;;;;5.20;2.23;;;;;;;;;;5058891;28;20189;-75
2022/07/28 13:58:26;;;;;;;2.27;2.00;;;;;;;;;;5056507;28;20175;-75
2022/07/28 14:00:52;;;;;;;2.47;1.80;;;;;;;;;;5053024;28;20239;-75
2022/07/28 14:03:18;;;;;;;2.53;2.17;;;;;;;;;;5057970;28;20725;-75
2022/07/28 14:05:44;;;;;;;2.63;2.23;;;;;;;;;;5051559;28;20191;-75
2022/07/28 14:08:17;;;;;;;3.10;2.00;;;;;;;;;;5056621;28;20261;-75
2022/07/28 14:10:44;;;;;;;3.20;1.90;;;;;;;;;;5059944;28;20210;-75
2022/07/28 14:13:10;;;;;;;3.73;2.17;;;;;;;;;;5062496;28;20234;-75
2022/07/28 14:15:36;;;;;;;4.97;2.03;;;;;;;;;;5048026;28;20179;-75
2022/07/28 14:18:02;;;;;;;3.30;2.13;;;;;;;;;;5053406;28;20208;-74
2022/07/28 14:20:29;;;;;;;4.00;2.13;;;;;;;;;;5058501;28;20656;-75
2022/07/28 14:22:57;;;;;;;3.90;2.30;;;;;;;;;;5053900;28;22850;-75
2022/07/28 14:25:23;;;;;;;5.20;2.20;;;;;;;;;;5060961;28;20732;-74
2022/07/28 14:27:50;;;;;;;4.37;2.30;;;;;;;;;;5061080;28;20986;-74